Anstruther, United Kingdom
Current Conditions -  °F | °C
As of 5:50 AM on Saturday 25 Oct 2014 (Local Time) from EGQL Reporting Station
Broken Clouds Broken Clouds  
Wind Chill: 10°   Ceiling: 4800
Heat Index: 10°   Visibility: 6mi
Dew Point:   Wind: 23mph
Humidity: 76%   Direction: 240°WSW
Pressure: 29.65"   Gusts: NA
Location:  56.22°N, 2.7°W
Report Text: EGQL 250450Z 24020KT 9999 BKN048 10/06 Q1004 BLU
Loading
Personal Weather Stations






























Interactive Weather Map
Tropical Storm Tracking
New forecast layout! Learn more

10-Day Weather Forecast

Advertisements
Track Severe Weather on mobile